Time;durP1;ratioP1;P1;durP2;ratioP2;P2;SDS_P1;SDS_P2;PMS_P1;PMS_P2;Temp;Humidity;BMP_temperature;BMP_pressure;BME280_temperature;BME280_humidity;BME280_pressure;Samples;Min_cycle;Max_cycle;Signal;HPM_P1;HPM_P2
2022/09/07 00:00:42;;;;;;;5.90;1.88;;;19.20;52.50;;;;;;6154050;23;20065;-90
2022/09/07 00:03:30;;;;;;;7.90;2.10;;;19.10;61.10;;;;;;6155499;23;20021;-87
2022/09/07 00:06:17;;;;;;;7.03;2.17;;;19.10;70.90;;;;;;6157012;23;20025;-90
2022/09/07 00:09:07;;;;;;;6.75;2.00;;;19.00;77.60;;;;;;6155358;23;20025;-88
2022/09/07 00:11:55;;;;;;;9.13;2.25;;;18.90;85.30;;;;;;6151818;23;20026;-86
2022/09/07 00:14:42;;;;;;;8.35;1.77;;;18.90;91.40;;;;;;6155256;23;20041;-88
2022/09/07 00:17:29;;;;;;;7.35;2.05;;;18.80;94.30;;;;;;6136419;23;20026;-89
2022/09/07 00:20:16;;;;;;;6.13;1.98;;;18.80;99.20;;;;;;6155295;23;20033;-88
2022/09/07 00:23:03;;;;;;;7.25;1.90;;;18.70;99.90;;;;;;6156335;23;20314;-90
2022/09/07 00:25:50;;;;;;;4.10;1.60;;;18.70;99.90;;;;;;6135292;23;20032;-88
2022/09/07 00:28:40;;;;;;;8.68;1.90;;;18.60;99.90;;;;;;6156066;23;20029;-89
2022/09/07 00:31:29;;;;;;;3.75;1.90;;;18.60;99.90;;;;;;6156655;23;20033;-87
2022/09/07 00:34:16;;;;;;;2.70;1.55;;;18.60;99.90;;;;;;6154774;23;20033;-90
2022/09/07 00:37:04;;;;;;;5.00;2.00;;;18.70;99.90;;;;;;6154148;23;20036;-87
2022/09/07 00:39:51;;;;;;;6.22;2.38;;;18.70;99.90;;;;;;6156151;23;20045;-86
2022/09/07 00:42:38;;;;;;;4.47;1.88;;;18.80;97.90;;;;;;6134548;23;20053;-89
2022/09/07 00:45:26;;;;;;;6.57;2.45;;;18.80;94.50;;;;;;6157291;23;20025;-89
2022/09/07 00:48:17;;;;;;;3.67;1.60;;;18.90;95.20;;;;;;6150966;23;20036;-89
2022/09/07 00:51:08;;;;;;;6.70;2.20;;;18.70;98.90;;;;;;6172183;23;20029;-88
2022/09/07 00:54:05;;;;;;;5.45;2.13;;;18.60;99.90;;;;;;6178684;23;20040;-85
2022/09/07 00:56:52;;;;;;;3.90;2.00;;;18.50;99.90;;;;;;6180870;23;20017;-90
2022/09/07 00:59:46;;;;;;;9.85;1.88;;;18.50;99.90;;;;;;6177670;23;20026;-90
2022/09/07 01:02:36;;;;;;;6.13;1.98;;;18.40;99.90;;;;;;6178888;23;20059;-90
2022/09/07 01:06:13;;;;;;;6.72;2.22;;;18.40;99.90;;;;;;6147395;23;20076;-91
2022/09/07 01:09:09;;;;;;;5.60;2.78;;;18.30;99.90;;;;;;6163131;23;20084;-90
2022/09/07 01:12:01;;;;;;;4.20;1.92;;;18.30;99.90;;;;;;6159549;23;20084;-87
2022/09/07 01:14:51;;;;;;;8.00;2.27;;;18.20;99.90;;;;;;6157944;23;20026;-90
2022/09/07 01:17:58;;;;;;;5.85;1.92;;;18.10;99.90;;;;;;6158013;23;20711;-85
2022/09/07 01:21:06;;;;;;;3.80;2.28;;;18.10;99.90;;;;;;6156667;23;20038;-89
2022/09/07 01:24:02;;;;;;;4.70;1.95;;;18.00;99.90;;;;;;6156909;23;20029;-89
2022/09/07 01:26:49;;;;;;;3.70;2.20;;;18.00;99.90;;;;;;6157148;23;20031;-88
2022/09/07 01:29:45;;;;;;;7.53;2.20;;;18.00;99.90;;;;;;6157485;23;20025;-90
2022/09/07 01:32:36;;;;;;;5.22;2.30;;;18.10;99.90;;;;;;6158106;23;20446;-89
2022/09/07 01:35:38;;;;;;;7.90;2.65;;;18.10;99.90;;;;;;6159200;23;20152;-91
2022/09/07 01:38:48;;;;;;;5.53;2.65;;;18.00;99.90;;;;;;6157444;23;20484;-88
2022/09/07 01:41:42;;;;;;;8.40;2.42;;;18.00;99.90;;;;;;6135856;23;20021;-87
2022/09/07 01:44:39;;;;;;;6.68;2.78;;;17.90;99.90;;;;;;6156641;23;20017;-87
2022/09/07 01:47:45;;;;;;;9.00;3.05;;;17.90;99.90;;;;;;6156712;23;20029;-87
2022/09/07 01:50:44;;;;;;;7.25;2.80;;;17.80;99.90;;;;;;6157584;23;20036;-88
2022/09/07 01:53:38;;;;;;;3.95;2.47;;;17.80;99.90;;;;;;6156051;23;20021;-87
2022/09/07 01:56:41;;;;;;;5.30;2.45;;;17.90;99.90;;;;;;6157577;23;20077;-90
2022/09/07 02:00:02;;;;;;;5.25;2.80;;;17.90;99.90;;;;;;6155995;23;20088;-90
2022/09/07 02:03:38;;;;;;;5.10;3.38;;;18.00;99.90;;;;;;6137591;23;20087;-89
2022/09/07 02:06:51;;;;;;;7.38;2.80;;;18.10;99.90;;;;;;6158518;23;20321;-88
2022/09/07 02:10:08;;;;;;;6.30;2.80;;;18.30;99.90;;;;;;6158471;23;20026;-88
2022/09/07 02:13:02;;;;;;;12.90;3.33;;;18.40;99.90;;;;;;6138152;23;20041;-88
2022/09/07 02:16:01;;;;;;;8.20;3.47;;;18.60;99.90;;;;;;6156602;23;20029;-91
2022/09/07 02:18:56;;;;;;;5.88;3.33;;;18.80;99.90;;;;;;6157620;23;20546;-86
2022/09/07 02:21:51;;;;;;;6.72;2.95;;;18.80;99.90;;;;;;6138995;23;20120;-87
2022/09/07 02:24:42;;;;;;;8.18;2.88;;;18.80;99.90;;;;;;6140778;23;20025;-88
2022/09/07 02:27:44;;;;;;;5.80;2.90;;;18.80;99.90;;;;;;6168179;23;20104;-90
2022/09/07 02:30:31;;;;;;;5.57;2.70;;;18.80;99.90;;;;;;6137003;23;20025;-89
2022/09/07 02:33:18;;;;;;;6.32;2.65;;;18.80;99.90;;;;;;6159242;23;20424;-89
2022/09/07 02:36:06;;;;;;;7.10;3.03;;;18.80;99.90;;;;;;6160404;23;20085;-90
2022/09/07 02:38:56;;;;;;;6.38;3.22;;;18.80;99.90;;;;;;6159263;23;20036;-88
2022/09/07 02:41:46;;;;;;;6.22;2.80;;;18.70;99.90;;;;;;6157748;23;20026;-88
2022/09/07 02:44:39;;;;;;;5.07;2.83;;;18.70;99.90;;;;;;6160548;23;20325;-90
2022/09/07 02:47:53;;;;;;;5.95;2.85;;;18.70;99.90;;;;;;6119265;23;20044;-88
2022/09/07 02:50:51;;;;;;;7.40;2.45;;;18.80;99.90;;;;;;6159617;23;20021;-91
2022/09/07 02:53:49;;;;;;;7.47;3.17;;;18.80;99.90;;;;;;6158054;23;20488;-90
2022/09/07 02:56:51;;;;;;;9.20;3.22;;;18.80;99.90;;;;;;6157867;23;20037;-87
2022/09/07 03:00:00;;;;;;;5.45;2.67;;;18.80;99.90;;;;;;6136564;23;20025;-89
2022/09/07 03:03:26;;;;;;;10.48;2.65;;;18.70;99.90;;;;;;6162111;23;20427;-90
2022/09/07 03:06:25;;;;;;;6.38;2.75;;;18.70;99.90;;;;;;6132165;23;20033;-86
2022/09/07 03:09:17;;;;;;;6.10;2.50;;;18.70;99.90;;;;;;6145162;23;20025;-89
2022/09/07 03:12:06;;;;;;;;;;;18.70;99.90;;;;;;6143233;23;20051;-87
2022/09/07 03:14:53;;;;;;;6.82;2.42;;;18.80;99.90;;;;;;6165412;23;19927;-88
2022/09/07 03:17:41;;;;;;;6.30;2.88;;;18.80;99.90;;;;;;6166350;23;20025;-91
2022/09/07 03:20:30;;;;;;;8.23;3.15;;;18.60;99.90;;;;;;6172673;23;20013;-89
2022/09/07 03:23:18;;;;;;;9.30;2.53;;;18.50;99.90;;;;;;6174615;23;20032;-89
2022/09/07 03:26:05;;;;;;;9.18;2.90;;;18.30;99.90;;;;;;6173997;23;20026;-91
2022/09/07 03:28:52;;;;;;;7.00;3.25;;;18.20;99.90;;;;;;6173560;23;20029;-92
2022/09/07 03:31:51;;;;;;;6.53;2.65;;;18.00;99.90;;;;;;6180227;23;20021;-89
2022/09/07 03:34:39;;;;;;;7.53;2.97;;;17.90;99.90;;;;;;6152328;23;20033;-88
2022/09/07 03:37:28;;;;;;;5.20;2.85;;;17.80;99.90;;;;;;6150116;23;20025;-90
2022/09/07 03:40:16;;;;;;;7.72;3.75;;;17.70;99.90;;;;;;6150178;23;20057;-88
2022/09/07 03:43:05;;;;;;;9.95;5.38;;;17.60;99.90;;;;;;6151109;23;20006;-82
2022/09/07 03:46:11;;;;;;;8.38;3.50;;;17.50;1.00;;;;;;6150638;23;20026;-91
2022/09/07 03:48:58;;;;;;;6.82;3.80;;;17.50;1.00;;;;;;6140189;23;20036;-90
2022/09/07 03:51:48;;;;;;;7.03;3.40;;;17.40;1.00;;;;;;6148241;23;20013;-89
2022/09/07 03:54:36;;;;;;;6.88;3.42;;;17.30;1.00;;;;;;6140239;23;20030;-90
2022/09/07 03:57:25;;;;;;;11.35;3.47;;;17.30;1.00;;;;;;6135136;23;20430;-91
2022/09/07 04:00:13;;;;;;;7.78;3.38;;;17.30;1.00;;;;;;6124917;23;20026;-89
2022/09/07 04:03:04;;;;;;;12.35;3.20;;;17.20;1.00;;;;;;6127043;23;20037;-90
2022/09/07 04:05:56;;;;;;;8.13;3.47;;;17.00;1.00;;;;;;6126493;23;20026;-90
2022/09/07 04:08:46;;;;;;;8.18;4.25;;;16.80;1.00;;;;;;6127331;23;20025;-90
2022/09/07 04:11:34;;;;;;;9.52;3.85;;;16.70;61.00;;;;;;6127468;23;20334;-89
2022/09/07 04:14:30;;;;;;;11.27;4.93;;;16.60;99.90;;;;;;6130656;23;20030;-91
2022/09/07 04:17:23;;;;;;;10.38;4.72;;;16.70;99.90;;;;;;6125740;23;20025;-90
2022/09/07 04:20:13;;;;;;;10.38;3.95;;;16.70;99.90;;;;;;6126572;23;20045;-90
2022/09/07 04:23:02;;;;;;;11.85;3.92;;;16.70;99.90;;;;;;6126889;23;20029;-91
2022/09/07 04:25:50;;;;;;;10.35;4.18;;;16.80;99.90;;;;;;6127213;23;20394;-88
2022/09/07 04:28:38;;;;;;;8.60;3.83;;;16.80;99.90;;;;;;6127746;23;20073;-86
2022/09/07 04:31:25;;;;;;;7.75;4.05;;;16.70;99.90;;;;;;6129594;23;20026;-89
2022/09/07 04:34:13;;;;;;;9.43;4.05;;;16.80;99.90;;;;;;6110812;23;20367;-86
2022/09/07 04:37:00;;;;;;;10.85;3.80;;;16.80;99.90;;;;;;6105610;23;20037;-87
2022/09/07 04:39:50;;;;;;;6.75;3.97;;;16.90;99.90;;;;;;6128220;23;20026;-87
2022/09/07 04:42:37;;;;;;;12.10;4.05;;;16.80;99.90;;;;;;6107571;23;20275;-86
2022/09/07 04:45:25;;;;;;;10.50;3.53;;;16.70;99.90;;;;;;6127352;23;20021;-86
2022/09/07 04:48:12;;;;;;;7.75;3.85;;;16.70;99.90;;;;;;6128538;23;20053;-86
2022/09/07 04:51:07;;;;;;;8.43;4.10;;;16.70;99.90;;;;;;6129241;23;20092;-86
2022/09/07 04:53:56;;;;;;;10.98;3.85;;;16.60;99.90;;;;;;6126590;23;20026;-86
2022/09/07 04:56:43;;;;;;;6.88;3.70;;;16.60;99.90;;;;;;6126911;23;20128;-86
2022/09/07 04:59:30;;;;;;;5.63;3.30;;;16.60;99.90;;;;;;6107591;23;20026;-87
2022/09/07 05:02:18;;;;;;;11.40;4.15;;;16.70;99.90;;;;;;6127975;23;20033;-85
2022/09/07 05:05:05;;;;;;;7.22;3.53;;;16.80;99.90;;;;;;6129955;23;20057;-86
2022/09/07 05:07:53;;;;;;;6.05;3.58;;;16.90;99.90;;;;;;6127946;23;20378;-86
2022/09/07 05:10:52;;;;;;;5.85;4.00;;;16.90;99.90;;;;;;6107973;23;20391;-87
2022/09/07 05:13:43;;;;;;;8.00;3.45;;;16.90;99.90;;;;;;6106357;23;20045;-86
2022/09/07 05:16:30;;;;;;;7.90;3.17;;;17.00;92.90;;;;;;6126209;23;20311;-89
2022/09/07 05:19:18;;;;;;;6.10;2.85;;;17.10;58.90;;;;;;6106022;23;20129;-87
2022/09/07 05:22:08;;;;;;;6.65;3.85;;;17.10;15.40;;;;;;6126610;23;20025;-87
2022/09/07 05:24:55;;;;;;;7.88;3.75;;;17.20;1.00;;;;;;6126903;23;20036;-87
2022/09/07 05:27:42;;;;;;;7.47;2.90;;;17.30;1.00;;;;;;6105817;23;20030;-88
2022/09/07 05:30:32;;;;;;;9.20;3.72;;;17.40;1.00;;;;;;6104695;23;20022;-86
2022/09/07 05:33:39;;;;;;;7.47;3.30;;;17.50;1.00;;;;;;6145900;23;20040;-86
2022/09/07 05:36:49;;;;;;;11.23;3.03;;;17.60;1.00;;;;;;6156144;23;20452;-87
2022/09/07 05:39:38;;;;;;;8.32;4.18;;;17.70;1.00;;;;;;6156378;23;20301;-86
2022/09/07 05:42:26;;;;;;;5.45;3.20;;;17.60;1.00;;;;;;6155118;23;20077;-88
2022/09/07 05:45:16;;;;;;;6.63;3.10;;;17.60;1.00;;;;;;6158453;23;20076;-85
2022/09/07 05:48:03;;;;;;;7.80;3.33;;;17.60;1.00;;;;;;6137103;23;20033;-88
2022/09/07 05:50:51;;;;;;;9.00;3.10;;;17.80;1.00;;;;;;6156689;23;20025;-85
2022/09/07 05:57:09;;;;;;;12.25;3.08;;;17.90;99.90;;;;;;6156908;23;20044;-89
2022/09/07 05:59:56;;;;;;;7.00;3.00;;;18.00;99.90;;;;;;6137027;23;20416;-89
2022/09/07 06:02:44;;;;;;;14.10;3.92;;;18.10;99.90;;;;;;6157070;23;20025;-88
2022/09/07 06:05:31;;;;;;;10.90;3.25;;;18.20;99.90;;;;;;6162318;23;20045;-89
2022/09/07 06:08:19;;;;;;;6.35;3.15;;;18.30;99.90;;;;;;6158563;23;20032;-87
2022/09/07 06:11:08;;;;;;;8.77;3.05;;;18.40;99.90;;;;;;6156640;23;20026;-87
2022/09/07 06:13:55;;;;;;;5.80;3.53;;;18.50;99.90;;;;;;6158179;23;20091;-90
2022/09/07 06:16:43;;;;;;;7.22;2.83;;;18.70;99.90;;;;;;6164976;23;20032;-88
2022/09/07 06:19:30;;;;;;;10.40;3.00;;;19.00;99.90;;;;;;6175287;23;20060;-92
2022/09/07 06:22:22;;;;;;;9.45;2.75;;;19.20;99.90;;;;;;6148653;23;20021;-90
2022/09/07 06:25:16;;;;;;;7.32;2.60;;;19.30;99.90;;;;;;6156214;23;20026;-89
2022/09/07 06:28:07;;;;;;;5.47;2.70;;;19.40;99.90;;;;;;6156162;23;20092;-91
2022/09/07 06:31:07;;;;;;;8.93;2.50;;;19.40;99.90;;;;;;6157165;23;20021;-91
2022/09/07 06:33:56;;;;;;;7.28;2.35;;;19.60;99.90;;;;;;6159749;23;20033;-89
2022/09/07 06:36:43;;;;;;;13.50;3.22;;;19.70;99.90;;;;;;6143673;23;20025;-88
2022/09/07 06:39:30;;;;;;;10.68;2.80;;;19.70;99.90;;;;;;6143072;23;20079;-90
2022/09/07 06:42:20;;;;;;;10.32;2.65;;;19.70;99.90;;;;;;6164835;23;20026;-90
2022/09/07 06:45:10;;;;;;;6.85;3.00;;;19.70;99.90;;;;;;6143731;23;20033;-89
2022/09/07 06:47:58;;;;;;;4.68;2.28;;;19.70;99.90;;;;;;6141827;23;20022;-90
2022/09/07 06:51:01;;;;;;;10.52;2.78;;;19.70;99.90;;;;;;6140153;23;20093;-89
2022/09/07 06:53:48;;;;;;;6.55;2.38;;;19.70;99.90;;;;;;6139618;23;20028;-87
2022/09/07 06:56:38;;;;;;;11.10;2.70;;;19.70;99.90;;;;;;6139040;23;20069;-86
2022/09/07 06:59:28;;;;;;;6.60;2.50;;;19.80;99.90;;;;;;6157630;23;20037;-88
2022/09/07 07:02:18;;;;;;;7.22;2.55;;;19.70;99.90;;;;;;6162668;23;20037;-90
2022/09/07 07:05:06;;;;;;;7.85;3.20;;;19.80;99.90;;;;;;6168869;23;20043;-90
2022/09/07 07:07:55;;;;;;;6.88;2.47;;;19.90;99.90;;;;;;6144239;23;20025;-89
2022/09/07 07:10:42;;;;;;;7.07;2.70;;;20.10;99.90;;;;;;6162079;23;20021;-88
2022/09/07 07:13:31;;;;;;;10.15;2.80;;;20.20;99.90;;;;;;6159553;23;20096;-88
2022/09/07 07:16:18;;;;;;;12.02;4.45;;;20.30;99.90;;;;;;6159018;23;20025;-88
2022/09/07 07:19:05;;;;;;;9.48;2.53;;;20.40;99.90;;;;;;6171480;23;20040;-89
2022/09/07 07:21:53;;;;;;;8.55;2.40;;;20.50;99.90;;;;;;6172841;23;20026;-87
2022/09/07 07:25:00;;;;;;;7.50;2.60;;;20.60;99.90;;;;;;6178202;23;20013;-85
2022/09/07 07:27:48;;;;;;;5.75;2.30;;;20.80;99.90;;;;;;6160773;23;20022;-87
2022/09/07 07:30:38;;;;;;;5.65;2.58;;;20.90;99.90;;;;;;6181943;23;20021;-90
2022/09/07 07:33:33;;;;;;;10.05;2.55;;;21.00;99.90;;;;;;6179389;23;20033;-85
2022/09/07 07:36:27;;;;;;;7.03;2.25;;;21.10;99.90;;;;;;6148397;23;20029;-90
2022/09/07 07:39:14;;;;;;;11.05;2.83;;;21.10;98.00;;;;;;6166836;23;20152;-91
2022/09/07 07:42:28;;;;;;;7.32;2.40;;;21.10;93.80;;;;;;6164511;23;20026;-93
2022/09/07 07:45:49;;;;;;;7.75;2.38;;;21.40;90.50;;;;;;6140655;23;20070;-91
2022/09/07 07:49:21;;;;;;;13.15;2.08;;;21.50;77.70;;;;;;6159352;23;20036;-91
2022/09/07 07:52:31;;;;;;;;;;;;;;;;;;;;;
2022/09/07 07:55:39;;;;;;;7.38;2.47;;;22.50;29.50;;;;;;6167131;23;20330;-90
2022/09/07 07:58:34;;;;;;;8.75;2.40;;;22.50;26.10;;;;;;6160977;23;20434;-89
2022/09/07 08:01:24;;;;;;;10.65;2.70;;;22.40;18.00;;;;;;6164132;23;20088;-91
2022/09/07 08:04:11;;;;;;;12.40;2.95;;;22.20;30.00;;;;;;6164878;23;20410;-88
2022/09/07 08:06:59;;;;;;;9.63;2.53;;;22.50;25.20;;;;;;6157852;23;20036;-90
2022/09/07 08:09:47;;;;;;;10.10;2.38;;;22.80;22.10;;;;;;6156475;23;20080;-89
2022/09/07 08:12:35;;;;;;;11.93;2.63;;;23.30;9.70;;;;;;6137239;23;20097;-89
2022/09/07 08:15:22;;;;;;;9.10;2.90;;;23.80;1.00;;;;;;6156767;23;20124;-90
2022/09/07 08:18:11;;;;;;;9.57;2.33;;;24.40;1.00;;;;;;6155943;23;20029;-89
2022/09/07 08:21:05;;;;;;;6.90;2.42;;;24.70;1.00;;;;;;6157857;23;20033;-92
2022/09/07 08:23:55;;;;;;;7.28;2.08;;;25.20;1.00;;;;;;6156553;23;20134;-90
2022/09/07 08:26:46;;;;;;;4.70;2.13;;;25.10;1.00;;;;;;6154940;23;20084;-87
2022/09/07 08:29:35;;;;;;;6.95;1.85;;;25.30;1.00;;;;;;6144681;23;20333;-92
2022/09/07 08:32:23;;;;;;;11.43;2.42;;;25.30;1.00;;;;;;6163050;23;20021;-87
2022/09/07 08:35:10;;;;;;;6.90;1.90;;;25.60;1.00;;;;;;6160917;23;20029;-85
2022/09/07 08:37:57;;;;;;;10.63;2.78;;;25.50;1.00;;;;;;6134287;23;20090;-85
2022/09/07 08:40:51;;;;;;;9.30;2.38;;;25.20;1.00;;;;;;6155045;23;20080;-86
2022/09/07 08:43:53;;;;;;;7.85;2.25;;;25.60;1.00;;;;;;6156570;23;20108;-88
2022/09/07 08:46:51;;;;;;;6.40;2.10;;;26.00;1.00;;;;;;6156197;23;20025;-87
2022/09/07 08:49:50;;;;;;;10.32;2.35;;;26.60;1.00;;;;;;6133838;23;20032;-85
2022/09/07 08:53:10;;;;;;;7.60;2.08;;;26.40;1.00;;;;;;6154625;23;20049;-86
2022/09/07 08:56:03;;;;;;;9.45;2.25;;;26.50;1.00;;;;;;6155404;23;20053;-86
2022/09/07 08:58:55;;;;;;;13.02;2.63;;;26.80;1.00;;;;;;6134809;23;20117;-88
2022/09/07 09:01:42;;;;;;;9.03;2.57;;;26.90;1.00;;;;;;6156438;23;20104;-89
2022/09/07 09:04:49;;;;;;;8.77;2.35;;;27.40;1.00;;;;;;6156764;23;20036;-87
2022/09/07 09:08:15;;;;;;;7.40;2.08;;;28.50;1.00;;;;;;6156364;23;20029;-84
2022/09/07 09:11:08;;;;;;;8.13;2.60;;;29.00;1.00;;;;;;6159076;23;20049;-88
2022/09/07 09:14:01;;;;;;;6.53;2.20;;;29.00;1.00;;;;;;6160878;23;20056;-88
2022/09/07 09:17:01;;;;;;;7.78;2.00;;;28.90;1.00;;;;;;6164472;23;20039;-85
2022/09/07 09:20:14;;;;;;;8.98;2.05;;;29.30;1.00;;;;;;6153466;23;20072;-87
2022/09/07 09:23:12;;;;;;;11.50;2.38;;;28.50;1.00;;;;;;6173606;23;20044;-86
2022/09/07 09:26:11;;;;;;;9.60;2.15;;;28.00;1.00;;;;;;6151891;23;20009;-86
2022/09/07 09:29:14;;;;;;;5.15;1.85;;;28.00;1.00;;;;;;6156371;23;20044;-84
2022/09/07 09:32:40;;;;;;;7.03;1.85;;;27.90;1.00;;;;;;6183675;23;20013;-85
2022/09/07 09:35:35;;;;;;;7.18;2.10;;;28.40;1.00;;;;;;6181009;23;20029;-87
2022/09/07 09:38:42;;;;;;;9.45;2.60;;;28.90;1.00;;;;;;6157701;23;20025;-87
2022/09/07 09:41:36;;;;;;;6.38;2.00;;;28.10;1.00;;;;;;6168742;23;20021;-88
2022/09/07 09:44:28;;;;;;;6.50;2.00;;;27.90;1.00;;;;;;6157654;23;20057;-87
2022/09/07 09:47:25;;;;;;;;;;;28.10;1.00;;;;;;6179794;23;20037;-88
2022/09/07 09:50:26;;;;;;;8.05;1.95;;;28.90;1.00;;;;;;6149931;23;19924;-87
2022/09/07 09:53:39;;;;;;;5.22;1.83;;;28.70;1.00;;;;;;6170080;23;20440;-87
2022/09/07 09:56:43;;;;;;;8.77;2.13;;;28.40;1.00;;;;;;6145425;23;20056;-87
2022/09/07 09:59:32;;;;;;;6.50;1.88;;;28.50;1.00;;;;;;6164116;23;20108;-86
2022/09/07 10:02:39;;;;;;;7.25;2.20;;;28.60;1.00;;;;;;6140932;23;20105;-88
2022/09/07 10:05:47;;;;;;;6.82;1.75;;;28.40;1.00;;;;;;6158495;23;20092;-86
2022/09/07 10:08:54;;;;;;;7.53;1.85;;;28.90;1.00;;;;;;6156902;23;20022;-88
2022/09/07 10:11:57;;;;;;;8.68;2.38;;;28.80;1.00;;;;;;6156083;23;20029;-86
2022/09/07 10:14:52;;;;;;;6.40;2.10;;;28.70;1.00;;;;;;6155651;23;20037;-86
2022/09/07 10:17:48;;;;;;;6.28;2.00;;;29.50;1.00;;;;;;6154651;23;20025;-86
2022/09/07 10:20:40;;;;;;;6.00;1.83;;;28.70;1.00;;;;;;6136372;23;20104;-87
2022/09/07 10:23:27;;;;;;;7.65;2.28;;;27.50;1.00;;;;;;6156227;23;20322;-83
2022/09/07 10:26:32;;;;;;;6.28;2.20;;;26.90;1.00;;;;;;6155746;23;20104;-86
2022/09/07 10:29:33;;;;;;;7.28;2.22;;;26.40;1.00;;;;;;6136668;23;20101;-87
2022/09/07 10:32:27;;;;;;;4.18;1.92;;;26.10;1.00;;;;;;6157949;23;20104;-86
2022/09/07 10:35:40;;;;;;;6.57;2.40;;;26.40;1.00;;;;;;6156700;23;20467;-86
2022/09/07 10:38:33;;;;;;;4.43;1.83;;;27.40;1.00;;;;;;6157709;23;20480;-88
2022/09/07 10:41:30;;;;;;;6.47;2.00;;;27.10;1.00;;;;;;6135956;23;20088;-88
2022/09/07 10:44:41;;;;;;;9.75;2.08;;;26.50;1.00;;;;;;6157180;23;20048;-88
2022/09/07 10:47:36;;;;;;;6.57;2.00;;;27.70;1.00;;;;;;6155420;23;20115;-88
2022/09/07 10:50:45;;;;;;;9.43;1.92;;;29.40;1.00;;;;;;6155398;23;20032;-84
2022/09/07 10:53:53;;;;;;;5.82;1.55;;;30.90;1.00;;;;;;6155880;23;20053;-88
2022/09/07 10:57:22;;;;;;;7.75;1.90;;;31.60;1.00;;;;;;6158707;23;20044;-87
2022/09/07 11:00:19;;;;;;;6.05;1.55;;;31.20;1.00;;;;;;6160368;23;20382;-89
2022/09/07 11:03:10;;;;;;;8.00;2.10;;;30.60;1.00;;;;;;6158059;23;20040;-86
2022/09/07 11:06:27;;;;;;;5.03;1.35;;;29.00;1.00;;;;;;6156833;23;20051;-88
2022/09/07 11:09:21;;;;;;;4.40;1.38;;;30.30;1.00;;;;;;6155748;23;20060;-89
2022/09/07 11:12:22;;;;;;;3.10;1.10;;;31.80;1.00;;;;;;6156580;23;20076;-86
2022/09/07 11:15:26;;;;;;;3.60;1.10;;;31.70;1.00;;;;;;6156936;23;20039;-88
2022/09/07 11:18:28;;;;;;;8.55;1.55;;;31.00;1.00;;;;;;6133542;23;20302;-85
2022/09/07 11:21:19;;;;;;;4.82;1.23;;;30.70;1.00;;;;;;6134026;23;20029;-88
2022/09/07 11:24:40;;;;;;;4.90;0.95;;;30.80;1.00;;;;;;6140672;23;20025;-87
2022/09/07 11:27:43;;;;;;;3.25;1.05;;;30.20;1.00;;;;;;6155047;23;20359;-88
2022/09/07 11:30:35;;;;;;;5.07;1.13;;;31.20;1.00;;;;;;6134310;23;20030;-88
2022/09/07 11:33:38;;;;;;;3.38;1.10;;;32.80;1.00;;;;;;6156455;23;20033;-89
2022/09/07 11:36:34;;;;;;;6.00;1.10;;;33.10;1.00;;;;;;6135414;23;20115;-90
2022/09/07 11:39:34;;;;;;;2.20;0.73;;;33.80;1.00;;;;;;6156803;23;20144;-90
2022/09/07 11:42:39;;;;;;;1.52;0.70;;;33.90;1.00;;;;;;6154516;23;20033;-88
2022/09/07 11:45:44;;;;;;;2.55;1.02;;;34.20;1.00;;;;;;6157230;23;20492;-87
2022/09/07 11:48:41;;;;;;;;;;;35.40;1.00;;;;;;6156600;23;20036;-86
2022/09/07 11:51:43;;;;;;;1.90;0.63;;;36.60;1.00;;;;;;6155904;23;19924;-86
2022/09/07 11:54:35;;;;;;;;;;;36.70;1.00;;;;;;6161048;23;20077;-88
2022/09/07 11:58:00;;;;;;;5.35;1.00;;;36.50;1.00;;;;;;6155647;23;20397;-86
2022/09/07 12:01:32;;;;;;;1.88;1.00;;;36.90;1.00;;;;;;6135540;23;20097;-86
2022/09/07 12:04:38;;;;;;;2.67;0.82;;;36.50;1.00;;;;;;6135760;23;20025;-87
2022/09/07 12:07:34;;;;;;;2.72;1.02;;;35.20;1.00;;;;;;6135155;23;20029;-86
2022/09/07 12:10:54;;;;;;;2.72;0.90;;;35.00;1.00;;;;;;6155031;23;20025;-87
2022/09/07 12:13:44;;;;;;;3.60;0.90;;;35.60;1.00;;;;;;6134482;23;20104;-86
2022/09/07 12:16:40;;;;;;;3.38;0.82;;;36.30;1.00;;;;;;6155529;23;20036;-88
2022/09/07 12:19:28;;;;;;;5.40;0.88;;;32.70;1.00;;;;;;6140612;23;20116;-89
2022/09/07 12:22:20;;;;;;;5.90;1.00;;;31.90;1.00;;;;;;6156446;23;20422;-88
2022/09/07 12:25:12;;;;;;;2.05;0.85;;;32.90;1.00;;;;;;6156987;23;20421;-87
2022/09/07 12:28:02;;;;;;;3.70;1.00;;;33.90;1.00;;;;;;6134084;23;20100;-85
2022/09/07 12:31:00;;;;;;;3.78;0.80;;;34.70;1.00;;;;;;6157511;23;20029;-86
2022/09/07 12:34:29;;;;;;;4.53;0.90;;;35.50;1.00;;;;;;6154137;23;20032;-87
2022/09/07 12:37:26;;;;;;;3.58;1.00;;;36.90;1.00;;;;;;6155593;23;20053;-90
2022/09/07 12:40:34;;;;;;;3.72;0.90;;;37.40;1.00;;;;;;6154623;23;20043;-87
2022/09/07 12:43:21;;;;;;;3.08;1.35;;;35.40;1.00;;;;;;6155115;23;20055;-87
2022/09/07 12:46:33;;;;;;;4.10;1.08;;;33.10;1.00;;;;;;6136103;23;20026;-85
2022/09/07 12:49:59;;;;;;;3.63;0.93;;;32.10;1.00;;;;;;6137059;23;20021;-85
2022/09/07 12:52:50;;;;;;;2.83;0.75;;;31.40;1.00;;;;;;6158648;23;20025;-86
2022/09/07 12:56:19;;;;;;;2.15;1.00;;;31.40;1.00;;;;;;6156687;23;20037;-85
2022/09/07 12:59:58;;;;;;;3.85;0.98;;;31.40;1.00;;;;;;6136754;23;20025;-85
2022/09/07 13:03:15;;;;;;;1.88;0.82;;;31.00;1.00;;;;;;6072183;23;20105;-85
2022/09/07 13:06:40;;;;;;;2.75;1.05;;;30.80;1.00;;;;;;6104753;23;20057;-85
2022/09/07 13:10:03;;;;;;;2.92;1.10;;;30.50;1.00;;;;;;6140896;23;20033;-84
2022/09/07 13:12:51;;;;;;;3.40;1.30;;;31.80;1.00;;;;;;6158638;23;20029;-86
2022/09/07 13:15:50;;;;;;;2.40;1.30;;;33.60;1.00;;;;;;6156680;23;20041;-85
2022/09/07 13:18:42;;;;;;;3.03;1.20;;;35.20;1.00;;;;;;6156005;23;20112;-84
2022/09/07 13:21:35;;;;;;;3.03;1.13;;;35.40;1.00;;;;;;6155028;23;20104;-83
2022/09/07 13:24:46;;;;;;;3.85;1.00;;;36.70;1.00;;;;;;6155985;23;20122;-86
2022/09/07 13:27:43;;;;;;;1.77;0.80;;;37.30;1.00;;;;;;6157061;23;20033;-86
2022/09/07 13:31:10;;;;;;;2.95;1.00;;;38.70;1.00;;;;;;6156603;23;20097;-87
2022/09/07 13:33:57;;;;;;;1.73;0.82;;;39.20;1.00;;;;;;6157315;23;20049;-86
2022/09/07 13:36:47;;;;;;;2.88;1.20;;;39.40;99.90;;;;;;6158622;23;20049;-87
2022/09/07 13:40:01;;;;;;;1.38;0.80;;;39.50;99.90;;;;;;6134198;23;20028;-86
2022/09/07 13:42:50;;;;;;;2.10;0.60;;;40.20;99.90;;;;;;6157547;23;20029;-85
2022/09/07 13:45:53;;;;;;;2.20;1.10;;;39.40;99.90;;;;;;6157581;23;20476;-84
2022/09/07 13:48:49;;;;;;;2.38;0.70;;;36.80;99.90;;;;;;6156053;23;20030;-85
2022/09/07 13:51:50;;;;;;;4.88;1.00;;;33.50;99.90;;;;;;6159429;23;20136;-86
2022/09/07 13:54:43;;;;;;;2.40;0.90;;;31.90;1.00;;;;;;6156230;23;20029;-83
2022/09/07 13:57:49;;;;;;;2.20;0.82;;;31.90;1.00;;;;;;6134141;23;20029;-83
2022/09/07 14:00:52;;;;;;;1.33;0.80;;;33.10;1.00;;;;;;6155719;23;20035;-85
2022/09/07 14:03:49;;;;;;;3.95;0.93;;;34.30;99.90;;;;;;6160092;23;20025;-86
2022/09/07 14:06:42;;;;;;;4.32;1.10;;;35.50;99.90;;;;;;6158234;23;20081;-85
2022/09/07 14:09:29;;;;;;;2.97;0.95;;;35.20;99.90;;;;;;6136173;23;20389;-85
2022/09/07 14:12:20;;;;;;;5.18;1.15;;;35.30;99.90;;;;;;6156854;23;20029;-86
2022/09/07 14:15:44;;;;;;;4.53;1.15;;;34.90;99.90;;;;;;6158310;23;20371;-85
2022/09/07 14:18:32;;;;;;;1.95;0.80;;;34.40;99.90;;;;;;6167499;23;20045;-84
2022/09/07 14:21:19;;;;;;;3.70;1.27;;;34.60;99.90;;;;;;6175245;23;20056;-83
2022/09/07 14:24:20;;;;;;;1.98;0.88;;;33.70;99.90;;;;;;6162174;23;20026;-84
2022/09/07 14:27:38;;;;;;;2.75;1.30;;;32.90;1.00;;;;;;6155640;23;20217;-85
2022/09/07 14:30:30;;;;;;;4.65;1.00;;;32.10;99.90;;;;;;6136047;23;20030;-84
2022/09/07 14:33:19;;;;;;;2.38;0.70;;;31.50;1.00;;;;;;6158222;23;20073;-84
2022/09/07 14:36:09;;;;;;;4.88;1.10;;;30.90;1.00;;;;;;6136899;23;20107;-84
2022/09/07 14:39:19;;;;;;;1.63;0.80;;;30.30;1.00;;;;;;6140200;23;20021;-85
2022/09/07 14:42:10;;;;;;;2.58;1.05;;;29.70;1.00;;;;;;6136204;23;20045;-85
2022/09/07 14:45:31;;;;;;;3.70;1.23;;;29.80;1.00;;;;;;6155377;23;20048;-85
2022/09/07 14:48:21;;;;;;;1.95;0.98;;;30.70;1.00;;;;;;6155073;23;20029;-85
2022/09/07 14:51:27;;;;;;;3.53;1.35;;;31.00;1.00;;;;;;6157134;23;20045;-84
2022/09/07 14:54:26;;;;;;;2.25;1.08;;;31.30;1.00;;;;;;6154914;23;20036;-85
2022/09/07 14:57:13;;;;;;;2.55;1.13;;;31.10;1.00;;;;;;6156391;23;20281;-85
2022/09/07 15:00:26;;;;;;;3.20;1.00;;;31.00;1.00;;;;;;6160191;23;20100;-86
2022/09/07 15:03:51;;;;;;;5.60;1.95;;;31.20;1.00;;;;;;6159346;23;20499;-85
2022/09/07 15:06:45;;;;;;;8.77;1.45;;;30.50;1.00;;;;;;6140825;23;20096;-87
2022/09/07 15:09:48;;;;;;;7.25;1.80;;;29.50;1.00;;;;;;6162202;23;20037;-84
2022/09/07 15:12:41;;;;;;;4.28;1.30;;;28.40;1.00;;;;;;6159543;23;20029;-87
2022/09/07 15:15:40;;;;;;;5.45;1.35;;;28.50;1.00;;;;;;6156454;23;20059;-86
2022/09/07 15:18:54;;;;;;;3.53;1.23;;;28.40;1.00;;;;;;6155646;23;20030;-86
2022/09/07 15:21:45;;;;;;;5.82;1.80;;;28.10;1.00;;;;;;6157123;23;20028;-86
2022/09/07 15:24:35;;;;;;;4.85;1.38;;;27.80;1.00;;;;;;6157075;23;20393;-85
2022/09/07 15:27:28;;;;;;;2.78;1.58;;;27.40;1.00;;;;;;6156293;23;20029;-88
2022/09/07 15:30:15;;;;;;;3.85;1.45;;;27.20;1.00;;;;;;6158623;23;20021;-88